CYSY

Sachs Harbour (David Nasogaluak Jr. Saaryuaq) Airport

Sachs Harbour, Northwest Territories, Canada
METAR CYSY 171900Z 04020KT 1SM IC DRSN BR SCT002 SCT140 M30/M34 A2969 RMK ST3AC1 AC TR LAST OBS/NEXT 181400Z SLP070
Observed Flight Rules
Dec-17 @ 19:00 UTC (8 hours ago) Instrument Flight Rules
Wind Visibility Clouds Conditions
40° at 20 knots 1 miles
  • Scattered at 200' AGL
  • Scattered at 14,000' AGL
  • Ice crystals
  • Low drifting
  • Snow
  • Mist
Temperatures Readings
Current -30°C / -22°F
Dewpoint -34°C / -29°F
Humidity 68%
Altimeter 29.69" Hg
Pressure 1007 hPa
Elevation 86
METAR CYSY 171900Z 04020KT 1SM IC DRSN BR SCT002 SCT140 M30/M34 A2969 RMK ST3AC1 AC TR LAST OBS/NEXT 181400Z SLP070
Observed Flight Rules
Dec-17 @ 19:00 UTC
(8 hours ago)
IFR
Wind Visibility
40° at 20 knots 1 miles
Clouds
  • Scattered at 200' AGL
  • Scattered at 14,000' AGL
Conditions
  • Ice crystals
  • Low drifting
  • Snow
  • Mist
Temperature Dewpoint
-30°C / -22°F -34°C / -29°F
Humidity Altimeter Pressure
68% 29.69" Hg 1007 hPa